Jarbo, California
Current Conditions -  °F | °C
As of 10:53 PM on Friday 24 Oct 2014 (Local Time) from KOVE Reporting Station
Clear Clear  
Wind Chill: 65°   Ceiling: Unl
Heat Index: 65°   Visibility: 10mi
Dew Point: 51°   Wind: 13mph
Humidity: 61%   Direction: 150°SSE
Pressure: 29.88"   Gusts: NA
Location:  39.5324°N, 121.648°W
Report Text: KOVE 250553Z AUTO 15011KT 10SM CLR 18/11 A2988 RMK AO2 SLP119 T01830106 10239 20167 53006
Loading
Personal Weather Stations






























Interactive Weather Map
Tropical Storm Tracking
New forecast layout! Learn more

10-Day Weather Forecast

Advertisements
Track Severe Weather on mobile